createdAt,value
2018-05-06T00:01:31.745Z,9.37
2018-05-06T00:03:59.258Z,8.80
2018-05-06T00:06:27.042Z,12.37
2018-05-06T00:08:54.652Z,9.13
2018-05-06T00:11:22.254Z,8.13
2018-05-06T00:13:49.804Z,8.87
2018-05-06T00:16:17.420Z,8.87
2018-05-06T00:18:44.922Z,8.33
2018-05-06T00:21:13.046Z,8.47
2018-05-06T00:23:40.604Z,10.73
2018-05-06T00:26:08.144Z,8.97
2018-05-06T00:28:35.672Z,8.20
2018-05-06T00:31:03.216Z,9.53
2018-05-06T00:33:30.792Z,8.60
2018-05-06T00:35:58.353Z,9.10
2018-05-06T00:38:25.917Z,11.47
2018-05-06T00:40:53.455Z,10.27
2018-05-06T00:43:22.016Z,8.70
2018-05-06T00:45:49.535Z,9.80
2018-05-06T00:48:17.068Z,12.97
2018-05-06T00:50:44.608Z,11.93
2018-05-06T00:53:12.343Z,11.13
2018-05-06T00:55:39.860Z,8.63
2018-05-06T00:58:07.382Z,12.00
2018-05-06T01:00:34.921Z,7.10
2018-05-06T01:03:03.095Z,10.07
2018-05-06T01:05:30.611Z,8.70
2018-05-06T01:07:58.161Z,10.97
2018-05-06T01:10:25.725Z,8.57
2018-05-06T01:12:53.305Z,9.80
2018-05-06T01:15:20.831Z,8.50
2018-05-06T01:17:48.396Z,9.23
2018-05-06T01:20:15.961Z,8.67
2018-05-06T01:22:43.503Z,8.33
2018-05-06T01:25:11.018Z,8.47
2018-05-06T01:27:38.547Z,11.90
2018-05-06T01:30:06.075Z,9.90
2018-05-06T01:32:33.784Z,7.73
2018-05-06T01:35:01.296Z,9.43
2018-05-06T01:37:28.847Z,11.33
2018-05-06T01:39:56.429Z,9.60
2018-05-06T01:42:24.309Z,10.63
2018-05-06T01:44:51.875Z,11.67
2018-05-06T01:47:19.445Z,8.47
2018-05-06T01:49:47.014Z,8.47
2018-05-06T01:52:14.644Z,12.03
2018-05-06T01:54:42.193Z,9.97
2018-05-06T01:57:09.782Z,7.57
2018-05-06T01:59:37.335Z,7.33
2018-05-06T02:02:04.972Z,10.57
2018-05-06T02:04:32.529Z,10.63
2018-05-06T02:07:00.107Z,9.07
2018-05-06T02:09:27.606Z,10.87
2018-05-06T02:11:55.168Z,13.30
2018-05-06T02:14:22.689Z,8.53
2018-05-06T02:16:50.236Z,10.90
2018-05-06T02:19:17.865Z,10.10
2018-05-06T02:21:45.399Z,7.80
2018-05-06T02:24:12.923Z,8.50
2018-05-06T02:26:40.987Z,8.97
2018-05-06T02:29:08.519Z,8.27
2018-05-06T02:31:36.074Z,8.73
2018-05-06T02:34:03.583Z,11.40
2018-05-06T02:36:31.135Z,10.57
2018-05-06T02:38:58.689Z,7.90
2018-05-06T02:41:26.200Z,8.77
2018-05-06T02:43:53.986Z,9.67
2018-05-06T02:46:21.702Z,8.93
2018-05-06T02:48:49.251Z,7.87
2018-05-06T02:51:16.788Z,8.07
2018-05-06T02:53:44.323Z,10.13
2018-05-06T02:56:12.898Z,10.87
2018-05-06T02:58:40.428Z,10.47
2018-05-06T03:01:07.958Z,11.53
2018-05-06T03:03:35.580Z,7.33
2018-05-06T03:06:03.286Z,10.50
2018-05-06T03:08:30.830Z,9.57
2018-05-06T03:10:58.498Z,8.40
2018-05-06T03:13:26.075Z,9.13
2018-05-06T03:15:53.609Z,9.40
2018-05-06T03:18:21.132Z,7.30
2018-05-06T03:20:48.695Z,11.53
2018-05-06T03:23:16.265Z,10.07
2018-05-06T03:25:43.796Z,7.57
2018-05-06T03:28:11.408Z,9.50
2018-05-06T03:30:38.986Z,9.50
2018-05-06T03:33:06.512Z,10.10
2018-05-06T03:35:34.065Z,8.30
2018-05-06T03:38:01.582Z,10.43
2018-05-06T03:40:31.174Z,9.07
2018-05-06T03:42:58.690Z,7.80
2018-05-06T03:45:26.270Z,7.63
2018-05-06T03:47:54.646Z,8.40
2018-05-06T03:50:22.181Z,9.47
2018-05-06T03:52:49.681Z,9.27
2018-05-06T03:55:17.205Z,10.57
2018-05-06T04:00:51.877Z,9.20
2018-05-06T04:03:19.588Z,7.00
2018-05-06T04:05:48.059Z,7.23
2018-05-06T04:08:15.589Z,7.47
2018-05-06T04:10:43.126Z,9.73
2018-05-06T04:13:10.686Z,9.43
2018-05-06T04:15:38.221Z,8.70
2018-05-06T04:18:05.887Z,6.60
2018-05-06T04:20:33.463Z,10.90
2018-05-06T04:23:00.966Z,6.70
2018-05-06T04:25:28.498Z,7.17
2018-05-06T04:27:56.314Z,8.30
2018-05-06T04:30:23.891Z,8.53
2018-05-06T04:32:51.405Z,7.33
2018-05-06T04:35:18.944Z,8.03
2018-05-06T04:37:46.722Z,6.83
2018-05-06T04:40:14.270Z,6.03
2018-05-06T04:42:41.794Z,8.77
2018-05-06T04:45:09.297Z,5.97
2018-05-06T04:47:36.806Z,6.27
2018-05-06T04:50:04.352Z,7.40
2018-05-06T04:52:31.987Z,6.37
2018-05-06T04:54:59.456Z,8.97
2018-05-06T04:57:27.091Z,8.23
2018-05-06T04:59:54.726Z,7.67
2018-05-06T05:02:22.303Z,9.10
2018-05-06T05:04:50.074Z,6.73
2018-05-06T05:07:17.727Z,7.33
2018-05-06T05:09:45.258Z,6.00
2018-05-06T05:12:13.785Z,8.10
2018-05-06T05:14:42.393Z,9.87
2018-05-06T05:17:10.003Z,6.83
2018-05-06T05:19:37.534Z,7.17
2018-05-06T05:22:05.088Z,7.87
2018-05-06T05:24:32.683Z,6.17
2018-05-06T05:27:00.235Z,9.03
2018-05-06T05:29:27.819Z,7.07
2018-05-06T05:31:55.378Z,6.07
2018-05-06T05:34:23.037Z,8.77
2018-05-06T05:36:50.565Z,9.63
2018-05-06T05:39:18.136Z,6.67
2018-05-06T05:41:45.695Z,10.37
2018-05-06T05:44:13.381Z,6.07
2018-05-06T05:46:40.929Z,5.30
2018-05-06T05:49:08.763Z,5.47
2018-05-06T05:51:36.274Z,6.27
2018-05-06T05:54:04.129Z,8.83
2018-05-06T05:56:31.685Z,6.40
2018-05-06T05:58:59.218Z,7.20
2018-05-06T06:01:27.219Z,6.53
2018-05-06T06:03:54.767Z,5.10
2018-05-06T06:06:22.303Z,7.53
2018-05-06T06:08:49.834Z,7.23
2018-05-06T06:11:17.444Z,7.90
2018-05-06T06:13:44.984Z,6.67
2018-05-06T06:16:12.523Z,6.40
2018-05-06T06:18:40.224Z,5.50
2018-05-06T06:21:07.737Z,6.93
2018-05-06T06:23:35.262Z,6.57
2018-05-06T06:26:02.848Z,7.03
2018-05-06T06:28:30.382Z,8.37
2018-05-06T06:30:57.990Z,8.50
2018-05-06T06:33:25.504Z,6.33
2018-05-06T06:35:53.053Z,6.73
2018-05-06T06:38:20.656Z,6.97
2018-05-06T06:40:48.845Z,5.53
2018-05-06T06:43:16.397Z,7.10
2018-05-06T06:45:44.108Z,6.53
2018-05-06T06:48:11.672Z,8.70
2018-05-06T06:50:39.318Z,7.13
2018-05-06T06:53:06.992Z,9.87
2018-05-06T06:55:34.848Z,8.80
2018-05-06T06:58:03.961Z,8.53
2018-05-06T07:06:29.159Z,6.20
2018-05-06T07:08:56.684Z,8.50
2018-05-06T07:11:24.266Z,6.47
2018-05-06T07:13:51.839Z,6.63
2018-05-06T07:16:19.462Z,7.27
2018-05-06T07:18:47.003Z,5.67
2018-05-06T07:21:24.223Z,5.67
2018-05-06T07:23:52.323Z,6.83
2018-05-06T07:26:19.880Z,5.67
2018-05-06T07:28:47.541Z,5.73
2018-05-06T07:31:15.264Z,6.93
2018-05-06T07:33:42.897Z,5.13
2018-05-06T07:36:11.286Z,8.70
2018-05-06T07:38:38.821Z,6.53
2018-05-06T07:41:06.362Z,7.03
2018-05-06T07:43:33.877Z,6.87
2018-05-06T07:46:01.466Z,7.23
2018-05-06T07:48:29.038Z,5.93
2018-05-06T07:50:56.606Z,5.80
2018-05-06T07:53:24.147Z,9.40
2018-05-06T07:55:52.095Z,5.83
2018-05-06T07:58:19.614Z,7.73
2018-05-06T08:00:47.148Z,5.77
2018-05-06T08:03:14.680Z,6.07
2018-05-06T08:05:42.229Z,8.73
2018-05-06T08:08:09.751Z,5.73
2018-05-06T08:10:37.303Z,6.03
2018-05-06T08:13:04.848Z,7.80
2018-05-06T08:15:32.456Z,6.93
2018-05-06T08:18:00.061Z,7.00
2018-05-06T08:20:27.587Z,10.23
2018-05-06T08:22:55.166Z,4.83
2018-05-06T08:25:22.674Z,5.63
2018-05-06T08:27:50.226Z,6.10
2018-05-06T08:30:17.777Z,5.13
2018-05-06T08:32:45.301Z,4.07
2018-05-06T08:35:12.834Z,6.23
2018-05-06T08:37:40.545Z,5.10
2018-05-06T08:40:08.154Z,7.90
2018-05-06T08:42:35.828Z,7.00
2018-05-06T08:45:03.535Z,8.07
2018-05-06T08:47:31.047Z,9.20
2018-05-06T08:49:58.587Z,5.53
2018-05-06T08:52:26.125Z,4.33
2018-05-06T08:54:53.706Z,7.07
2018-05-06T08:57:21.248Z,4.97
2018-05-06T08:59:48.994Z,9.77
2018-05-06T09:02:16.520Z,11.13
2018-05-06T09:04:44.072Z,15.90
2018-05-06T09:07:11.583Z,8.60
2018-05-06T09:09:39.093Z,6.43
2018-05-06T09:12:06.752Z,5.93
2018-05-06T09:14:34.270Z,6.60
2018-05-06T09:17:01.814Z,7.00
2018-05-06T09:19:29.598Z,8.27
2018-05-06T09:21:57.182Z,7.43
2018-05-06T09:24:24.682Z,7.67
2018-05-06T09:26:52.201Z,5.53
2018-05-06T09:29:19.735Z,5.70
2018-05-06T09:31:47.348Z,7.70
2018-05-06T09:34:14.915Z,6.13
2018-05-06T09:36:42.468Z,6.20
2018-05-06T09:39:10.127Z,6.67
2018-05-06T09:41:37.667Z,6.97
2018-05-06T09:44:05.246Z,12.43
2018-05-06T09:46:32.760Z,6.57
2018-05-06T09:49:00.270Z,5.37
2018-05-06T09:51:27.807Z,5.47
2018-05-06T09:53:55.430Z,5.90
2018-05-06T09:56:22.882Z,5.43
2018-05-06T09:58:50.428Z,4.50
2018-05-06T10:01:17.974Z,4.80
2018-05-06T10:03:45.505Z,5.80
2018-05-06T10:06:13.029Z,8.97
2018-05-06T10:08:40.619Z,6.23
2018-05-06T10:11:09.186Z,5.60
2018-05-06T10:13:36.721Z,5.57
2018-05-06T10:16:04.258Z,7.60
2018-05-06T10:18:32.189Z,7.03
2018-05-06T10:20:59.679Z,6.27
2018-05-06T10:23:27.789Z,10.67
2018-05-06T10:25:55.325Z,6.07
2018-05-06T10:28:23.065Z,5.93
2018-05-06T10:30:50.745Z,5.90
2018-05-06T10:33:18.272Z,5.80
2018-05-06T10:35:46.028Z,4.73
2018-05-06T10:38:13.577Z,5.57
2018-05-06T10:40:41.430Z,4.57
2018-05-06T10:43:08.952Z,6.60
2018-05-06T10:45:44.562Z,7.97
2018-05-06T10:51:56.191Z,8.20
2018-05-06T10:54:49.227Z,6.27
2018-05-06T11:00:07.398Z,5.87
2018-05-06T11:02:42.772Z,6.60
2018-05-06T11:05:32.564Z,4.30
2018-05-06T11:08:11.617Z,5.70
2018-05-06T11:19:15.627Z,6.77
2018-05-06T11:21:57.524Z,7.80
2018-05-06T11:30:16.190Z,5.70
2018-05-06T11:33:05.414Z,5.87
2018-05-06T11:41:04.262Z,4.87
2018-05-06T11:43:31.800Z,4.85
2018-05-06T11:45:59.380Z,4.90
2018-05-06T11:48:26.893Z,6.07
2018-05-06T11:50:54.404Z,5.53
2018-05-06T11:53:21.929Z,4.80
2018-05-06T11:55:49.446Z,6.37
2018-05-06T11:58:16.973Z,5.97
2018-05-06T12:00:44.527Z,5.03
2018-05-06T12:03:12.071Z,4.70
2018-05-06T12:05:39.616Z,4.55
2018-05-06T12:08:07.243Z,5.25
2018-05-06T12:10:34.778Z,6.05
2018-05-06T12:13:02.320Z,3.87
2018-05-06T12:15:29.917Z,4.68
2018-05-06T12:17:57.550Z,4.00
2018-05-06T12:20:25.132Z,3.95
2018-05-06T12:22:52.707Z,4.15
2018-05-06T12:25:20.232Z,4.80
2018-05-06T12:27:47.783Z,8.40
2018-05-06T12:30:15.346Z,5.30
2018-05-06T12:32:42.956Z,4.12
2018-05-06T12:35:10.481Z,5.60
2018-05-06T12:37:38.006Z,5.32
2018-05-06T12:40:05.587Z,5.65
2018-05-06T12:42:33.143Z,5.32
2018-05-06T12:45:00.677Z,3.83
2018-05-06T12:47:28.281Z,4.78
2018-05-06T12:49:55.807Z,5.50
2018-05-06T12:52:23.353Z,5.87
2018-05-06T12:54:50.880Z,3.40
2018-05-06T12:57:18.514Z,6.20
2018-05-06T12:59:46.081Z,3.83
2018-05-06T13:02:13.616Z,5.25
2018-05-06T13:04:41.207Z,3.97
2018-05-06T13:07:08.934Z,3.83
2018-05-06T13:09:36.510Z,5.55
2018-05-06T13:12:04.148Z,5.10
2018-05-06T13:14:32.612Z,3.35
2018-05-06T13:17:00.234Z,4.62
2018-05-06T13:19:27.792Z,5.47
2018-05-06T13:21:56.261Z,4.30
2018-05-06T13:24:24.448Z,6.65
2018-05-06T13:26:52.097Z,6.18
2018-05-06T13:29:19.633Z,3.30
2018-05-06T13:31:47.184Z,4.57
2018-05-06T13:34:14.732Z,5.25
2018-05-06T13:36:42.521Z,4.87
2018-05-06T13:39:10.177Z,3.42
2018-05-06T13:41:38.552Z,5.53
2018-05-06T13:44:06.161Z,3.40
2018-05-06T13:46:33.709Z,3.42
2018-05-06T13:49:01.391Z,5.07
2018-05-06T13:51:28.920Z,2.75
2018-05-06T13:53:56.433Z,4.07
2018-05-06T13:56:23.978Z,2.97
2018-05-06T13:58:51.502Z,4.12
2018-05-06T14:01:19.040Z,5.18
2018-05-06T14:03:46.564Z,5.70
2018-05-06T14:06:14.360Z,2.78
2018-05-06T14:08:41.886Z,4.72
2018-05-06T14:11:09.487Z,4.72
2018-05-06T14:13:37.012Z,4.03
2018-05-06T14:16:04.554Z,3.83
2018-05-06T14:18:32.093Z,3.28
2018-05-06T14:20:59.628Z,5.40
2018-05-06T14:23:27.157Z,3.40
2018-05-06T14:25:54.699Z,2.95
2018-05-06T14:28:22.850Z,5.45
2018-05-06T14:30:50.361Z,3.83
2018-05-06T14:33:17.895Z,3.15
2018-05-06T14:35:45.679Z,4.45
2018-05-06T14:38:13.215Z,3.28
2018-05-06T14:40:40.718Z,3.10
2018-05-06T14:43:08.235Z,3.45
2018-05-06T14:45:35.786Z,3.25
2018-05-06T14:48:13.343Z,2.70
2018-05-06T14:50:40.926Z,3.25
2018-05-06T14:53:08.441Z,2.97
2018-05-06T14:55:36.018Z,3.70
2018-05-06T14:58:03.762Z,4.62
2018-05-06T15:00:31.272Z,2.92
2018-05-06T15:02:58.827Z,4.68
2018-05-06T15:05:26.756Z,2.37
2018-05-06T15:07:54.310Z,3.85
2018-05-06T15:10:21.976Z,2.67
2018-05-06T15:12:49.587Z,2.22
2018-05-06T15:15:17.123Z,6.70
2018-05-06T15:17:44.657Z,2.50
2018-05-06T15:20:12.219Z,4.10
2018-05-06T15:22:39.747Z,2.22
2018-05-06T15:25:07.336Z,2.78
2018-05-06T15:27:34.832Z,4.15
2018-05-06T15:30:02.418Z,3.25
2018-05-06T15:32:29.966Z,7.30
2018-05-06T15:34:57.455Z,2.87
2018-05-06T15:37:25.001Z,3.55
2018-05-06T15:39:52.521Z,3.87
2018-05-06T15:42:20.069Z,3.42
2018-05-06T15:44:47.618Z,4.65
2018-05-06T15:47:15.123Z,3.17
2018-05-06T15:49:42.667Z,3.08
2018-05-06T15:52:10.328Z,4.78
2018-05-06T15:54:38.331Z,5.78
2018-05-06T15:57:05.919Z,3.20
2018-05-06T15:59:33.648Z,5.93
2018-05-06T16:02:06.991Z,4.05
2018-05-06T16:04:34.585Z,3.28
2018-05-06T16:07:02.111Z,4.90
2018-05-06T16:09:30.353Z,7.82
2018-05-06T16:11:57.964Z,3.00
2018-05-06T16:14:25.540Z,3.50
2018-05-06T16:16:53.089Z,4.30
2018-05-06T16:19:20.719Z,5.12
2018-05-06T16:21:48.303Z,5.72
2018-05-06T16:24:15.893Z,4.53
2018-05-06T16:26:43.533Z,2.95
2018-05-06T16:29:11.046Z,4.20
2018-05-06T16:31:38.773Z,5.75
2018-05-06T16:34:06.326Z,3.83
2018-05-06T16:36:33.858Z,4.05
2018-05-06T16:39:01.492Z,2.62
2018-05-06T16:41:29.050Z,3.80
2018-05-06T16:43:56.572Z,4.65
2018-05-06T16:46:24.111Z,4.10
2018-05-06T16:48:51.646Z,4.57
2018-05-06T16:51:19.193Z,2.50
2018-05-06T16:53:46.886Z,4.75
2018-05-06T16:56:14.487Z,2.42
2018-05-06T16:58:42.031Z,4.70
2018-05-06T17:01:09.599Z,3.97
2018-05-06T17:03:38.225Z,7.10
2018-05-06T17:06:05.778Z,3.83
2018-05-06T17:08:33.331Z,4.15
2018-05-06T17:11:00.920Z,2.58
2018-05-06T17:13:28.432Z,3.05
2018-05-06T17:15:55.960Z,2.78
2018-05-06T17:18:23.490Z,7.43
2018-05-06T17:20:51.012Z,3.33
2018-05-06T17:23:18.684Z,5.53
2018-05-06T17:25:46.216Z,3.85
2018-05-06T17:28:13.838Z,3.87
2018-05-06T17:30:41.374Z,4.30
2018-05-06T17:33:08.921Z,4.12
2018-05-06T17:35:36.492Z,2.97
2018-05-06T17:38:04.028Z,5.37
2018-05-06T17:40:31.704Z,3.78
2018-05-06T17:42:59.225Z,5.90
2018-05-06T17:45:26.719Z,3.55
2018-05-06T17:47:54.309Z,4.82
2018-05-06T17:50:21.827Z,4.60
2018-05-06T17:52:49.513Z,3.80
2018-05-06T17:55:17.055Z,6.30
2018-05-06T17:57:50.519Z,4.40
2018-05-06T18:00:18.060Z,4.77
2018-05-06T18:02:45.578Z,2.70
2018-05-06T18:05:13.285Z,2.47
2018-05-06T18:07:40.923Z,6.47
2018-05-06T18:10:08.469Z,3.17
2018-05-06T18:12:36.048Z,5.10
2018-05-06T18:15:03.573Z,5.37
2018-05-06T18:17:31.134Z,2.77
2018-05-06T18:19:58.670Z,4.43
2018-05-06T18:22:26.228Z,7.63
2018-05-06T18:24:54.314Z,3.57
2018-05-06T18:27:21.894Z,7.47
2018-05-06T18:29:49.451Z,3.47
2018-05-06T18:32:17.087Z,3.80
2018-05-06T18:34:44.786Z,5.77
2018-05-06T18:37:12.402Z,2.70
2018-05-06T18:39:39.932Z,2.70
2018-05-06T18:42:07.571Z,5.20
2018-05-06T18:44:35.187Z,5.30
2018-05-06T18:47:02.877Z,3.20
2018-05-06T18:49:30.463Z,2.33
2018-05-06T18:51:58.029Z,3.57
2018-05-06T18:54:25.560Z,6.13
2018-05-06T18:56:53.105Z,3.60
2018-05-06T18:59:20.676Z,4.93
2018-05-06T19:01:48.301Z,4.57
2018-05-06T19:04:15.927Z,2.83
2018-05-06T19:06:43.475Z,4.03
2018-05-06T19:09:11.050Z,4.53
2018-05-06T19:11:38.637Z,5.17
2018-05-06T19:14:06.353Z,3.10
2018-05-06T19:16:33.899Z,3.50
2018-05-06T19:19:01.458Z,3.07
2018-05-06T19:21:29.235Z,2.70
2018-05-06T19:23:56.804Z,3.97
2018-05-06T19:26:24.392Z,5.60
2018-05-06T19:28:51.938Z,4.13
2018-05-06T19:31:19.493Z,3.73
2018-05-06T19:33:47.040Z,4.33
2018-05-06T19:36:14.603Z,5.60
2018-05-06T19:38:42.535Z,2.43
2018-05-06T19:41:10.337Z,3.10
2018-05-06T19:43:38.008Z,4.20
2018-05-06T19:46:05.549Z,20.70
2018-05-06T19:48:33.261Z,4.23
2018-05-06T19:51:00.976Z,5.37
2018-05-06T19:53:28.726Z,4.53
2018-05-06T19:55:56.260Z,4.13
2018-05-06T19:58:23.868Z,4.67
2018-05-06T20:00:51.540Z,2.87
2018-05-06T20:03:19.173Z,4.47
2018-05-06T20:05:46.933Z,3.37
2018-05-06T20:08:14.480Z,5.57
2018-05-06T20:10:42.268Z,3.07
2018-05-06T20:13:09.876Z,2.97
2018-05-06T20:15:37.545Z,2.20
2018-05-06T20:18:05.057Z,7.17
2018-05-06T20:20:32.815Z,5.40
2018-05-06T20:23:00.453Z,3.03
2018-05-06T20:25:28.928Z,3.47
2018-05-06T20:27:56.449Z,3.70
2018-05-06T20:30:24.008Z,4.77
2018-05-06T20:32:51.681Z,5.07
2018-05-06T20:35:19.351Z,3.77
2018-05-06T20:37:46.911Z,2.80
2018-05-06T20:40:14.426Z,3.70
2018-05-06T20:42:42.000Z,4.00
2018-05-06T20:45:09.646Z,2.20
2018-05-06T20:47:37.179Z,5.50
2018-05-06T20:50:04.809Z,2.87
2018-05-06T20:52:32.428Z,5.17
2018-05-06T20:54:59.935Z,3.63
2018-05-06T20:57:27.551Z,15.73
2018-05-06T20:59:55.283Z,5.00
2018-05-06T21:02:22.825Z,12.10
2018-05-06T21:04:50.414Z,7.37
2018-05-06T21:07:18.013Z,7.37
2018-05-06T21:09:45.650Z,5.07
2018-05-06T21:12:13.403Z,5.13
2018-05-06T21:14:41.064Z,4.27
2018-05-06T21:17:08.582Z,3.47
2018-05-06T21:19:36.089Z,5.73
2018-05-06T21:22:03.675Z,5.23
2018-05-06T21:24:31.200Z,3.00
2018-05-06T21:26:58.737Z,5.03
2018-05-06T21:29:26.377Z,2.47
2018-05-06T21:31:53.947Z,3.00
2018-05-06T21:34:21.517Z,5.67
2018-05-06T21:36:49.201Z,2.03
2018-05-06T21:39:16.675Z,4.50
2018-05-06T21:41:44.169Z,7.40
2018-05-06T21:44:11.718Z,4.97
2018-05-06T21:46:39.234Z,2.83
2018-05-06T21:49:06.679Z,3.43
2018-05-06T21:51:34.210Z,4.43
2018-05-06T21:54:01.925Z,3.37
2018-05-06T21:56:29.397Z,3.67
2018-05-06T21:58:56.917Z,3.50
2018-05-06T22:01:24.475Z,2.77
2018-05-06T22:03:51.953Z,4.03
2018-05-06T22:06:19.440Z,2.93
2018-05-06T22:08:46.930Z,2.63
2018-05-06T22:11:14.427Z,3.03
2018-05-06T22:13:42.156Z,5.00
2018-05-06T22:16:09.646Z,8.07
2018-05-06T22:18:37.160Z,2.37
2018-05-06T22:21:04.657Z,2.63
2018-05-06T22:23:32.163Z,4.37
2018-05-06T22:25:59.676Z,2.73
2018-05-06T22:28:27.197Z,2.83
2018-05-06T22:30:54.666Z,5.13
2018-05-06T22:33:22.236Z,3.20
2018-05-06T22:35:49.796Z,4.87
2018-05-06T22:38:17.277Z,3.73
2018-05-06T22:40:44.768Z,3.77
2018-05-06T22:43:12.304Z,2.47
2018-05-06T22:45:39.773Z,3.57
2018-05-06T22:48:07.276Z,3.50
2018-05-06T22:50:34.740Z,3.17
2018-05-06T22:53:02.257Z,3.33
2018-05-06T22:55:29.766Z,1.57
2018-05-06T22:57:57.246Z,3.00
2018-05-06T23:00:24.742Z,3.27
2018-05-06T23:02:52.260Z,5.20
2018-05-06T23:05:19.778Z,2.40
2018-05-06T23:07:47.383Z,4.63
2018-05-06T23:10:14.875Z,3.00
2018-05-06T23:12:42.717Z,2.73
2018-05-06T23:15:10.580Z,3.53
2018-05-06T23:17:38.580Z,2.53
2018-05-06T23:20:06.290Z,3.40
2018-05-06T23:22:33.776Z,3.50
2018-05-06T23:25:01.333Z,2.47
2018-05-06T23:27:28.872Z,1.83
2018-05-06T23:29:56.572Z,3.37
2018-05-06T23:32:24.172Z,3.87
2018-05-06T23:34:51.659Z,1.90
2018-05-06T23:37:19.155Z,6.13
2018-05-06T23:39:46.671Z,4.20
2018-05-06T23:42:14.151Z,4.80
2018-05-06T23:44:42.685Z,2.87
2018-05-06T23:47:10.189Z,3.37
2018-05-06T23:49:37.785Z,1.90
2018-05-06T23:52:05.312Z,3.07
2018-05-06T23:54:32.935Z,2.77
2018-05-06T23:57:00.552Z,2.70
2018-05-06T23:59:28.081Z,2.33
